Adelong, New South Wales

8:08 PM AEDT on October 31, 2014 (GMT +1100)
Wagga Wagga | Change Station
CLOSE
Current Station
Airport
Location: Wagga Wagga Airport,
Elevation: 699 ft
Nearby Weather Stations

Elev 699 ft 35.16 °S, 147.46 °E | Updated 8 minutes ago

Clear
Clear
84 °F
Feels Like 84 °F
N
6
Wind Variable Wind from North

Today
High -- | Low -- °F
--% Chance of Precip.
Yesterday
High -- | Low -- °F
Precip. -- in
6:06 AM 7:36 PM
First Quarter, 53% visible
Pressure 29.65 in
Visibility -9999.0 miles
Clouds
Dew Point 28 °F
Humidity 13%
Rainfall 0.00 in
Snow Depth Not available.
UV Not available.
Pollen Not available.
Air Quality Not available.
Flu Activity Not available.
METAR YSWG 310900Z 36005KT CAVOK 29/M02 Q1004

More Conditions Fewer Conditions

Pressure 29.65 in
Visibility -9999.0 miles
Clouds
Dew Point 28 °F
Humidity 13%
Rainfall 0.00 in
Snow Depth Not available.
UV Not available.
Pollen Not available.
Air Quality Not available.
Flu Activity Not available.
METAR YSWG 310900Z 36005KT CAVOK 29/M02 Q1004

More Conditions Fewer Conditions

10-Day Weather Forecast

Almanac

Astronomy

Oct. 31, 2014 Rise Set
Actual Time
Civil Twilight
Nautical Twilight
Astronomical Twilight
Moon
Length of Visible Light
Length of Day
Tomorrow will be .
, % of the Moon is Illuminated

Today's Extremes

Country Highs Country Lows

Community

WunderPhotos

Upload Photos

1,766,573 photos uploaded!

WunderBlogs® & News

Nearby

Air Quality

  Air Quality AQ Index Pollutant
Not available.

Snow Depth

Station Depth Elevation

Earthquake Activity

City Distance Mag. Time & Date
Minimum magnitude displayed is 2.5.

Coastal Water Temperatures

Place Temperature

Nearby Weather Stations